createdAt,value
2023-07-05T00:00:34.369Z,3.60
2023-07-05T00:03:27.059Z,3.80
2023-07-05T00:06:20.001Z,3.80
2023-07-05T00:09:14.621Z,3.88
2023-07-05T00:12:09.347Z,3.97
2023-07-05T00:15:02.154Z,3.78
2023-07-05T00:17:55.280Z,3.70
2023-07-05T00:20:48.577Z,4.00
2023-07-05T00:23:46.380Z,3.60
2023-07-05T00:26:40.568Z,3.42
2023-07-05T00:29:34.329Z,3.53
2023-07-05T00:32:27.319Z,3.85
2023-07-05T00:35:20.035Z,3.42
2023-07-05T00:38:13.332Z,3.30
2023-07-05T00:41:06.126Z,3.20
2023-07-05T00:44:00.722Z,3.08
2023-07-05T00:46:59.462Z,3.20
2023-07-05T00:49:52.330Z,3.92
2023-07-05T00:52:45.949Z,3.10
2023-07-05T00:55:42.961Z,3.80
2023-07-05T00:58:36.716Z,3.35
2023-07-05T01:01:32.280Z,4.07
2023-07-05T01:04:26.436Z,3.50
2023-07-05T01:07:19.366Z,3.17
2023-07-05T01:10:19.039Z,4.20
2023-07-05T01:13:16.402Z,3.33
2023-07-05T01:16:25.194Z,3.88
2023-07-05T01:19:51.187Z,3.58
2023-07-05T01:23:16.898Z,3.40
2023-07-05T01:26:41.834Z,3.63
2023-07-05T01:29:58.233Z,3.17
2023-07-05T01:32:57.022Z,3.35
2023-07-05T01:35:53.270Z,3.78
2023-07-05T01:38:47.341Z,3.13
2023-07-05T01:41:40.565Z,3.85
2023-07-05T01:44:34.522Z,2.90
2023-07-05T01:47:34.049Z,3.15
2023-07-05T01:50:35.761Z,3.30
2023-07-05T01:53:36.636Z,3.17
2023-07-05T01:56:38.618Z,3.53
2023-07-05T01:59:37.899Z,3.13
2023-07-05T02:02:34.238Z,2.97
2023-07-05T02:05:30.980Z,3.28
2023-07-05T02:08:27.177Z,3.17
2023-07-05T02:11:24.345Z,3.35
2023-07-05T02:14:17.484Z,2.88
2023-07-05T02:17:10.522Z,3.20
2023-07-05T02:20:03.750Z,3.38
2023-07-05T02:23:01.055Z,2.80
2023-07-05T02:25:56.870Z,3.05
2023-07-05T02:28:50.516Z,3.17
2023-07-05T02:31:43.426Z,3.05
2023-07-05T02:34:40.678Z,3.60
2023-07-05T02:37:35.031Z,2.63
2023-07-05T02:40:29.558Z,2.95
2023-07-05T02:43:22.567Z,2.75
2023-07-05T02:46:15.454Z,3.38
2023-07-05T02:49:08.638Z,3.17
2023-07-05T02:52:02.220Z,3.00
2023-07-05T02:54:55.486Z,3.30
2023-07-05T02:57:49.511Z,2.80
2023-07-05T03:00:42.158Z,2.90
2023-07-05T03:03:35.034Z,3.28
2023-07-05T03:06:28.300Z,2.85
2023-07-05T03:09:21.121Z,2.80
2023-07-05T03:12:14.345Z,3.05
2023-07-05T03:15:09.842Z,2.75
2023-07-05T03:18:03.578Z,2.65
2023-07-05T03:20:57.985Z,2.65
2023-07-05T03:23:51.337Z,2.90
2023-07-05T03:26:44.489Z,2.70
2023-07-05T03:29:37.514Z,2.25
2023-07-05T03:32:32.247Z,3.20
2023-07-05T03:35:25.175Z,2.30
2023-07-05T03:38:18.727Z,2.70
2023-07-05T03:41:17.731Z,2.47
2023-07-05T03:44:11.616Z,2.70
2023-07-05T03:47:05.117Z,2.28
2023-07-05T03:49:59.701Z,2.50
2023-07-05T03:52:54.969Z,2.30
2023-07-05T03:55:48.583Z,2.45
2023-07-05T03:58:41.450Z,2.60
2023-07-05T04:01:34.780Z,2.25
2023-07-05T04:04:28.110Z,2.60
2023-07-05T04:07:22.480Z,2.50
2023-07-05T04:10:15.506Z,2.55
2023-07-05T04:13:08.211Z,2.20
2023-07-05T04:16:02.499Z,2.10
2023-07-05T04:18:57.280Z,2.17
2023-07-05T04:21:50.373Z,2.20
2023-07-05T04:24:45.057Z,2.20
2023-07-05T04:27:38.595Z,2.05
2023-07-05T04:30:31.374Z,2.28
2023-07-05T04:33:25.047Z,2.00
2023-07-05T04:36:27.412Z,2.45
2023-07-05T04:39:21.373Z,2.00
2023-07-05T04:42:15.938Z,2.42
2023-07-05T04:45:09.889Z,2.13
2023-07-05T04:48:03.585Z,2.63
2023-07-05T04:50:56.930Z,2.25
2023-07-05T04:53:50.658Z,2.38
2023-07-05T04:56:43.329Z,2.15
2023-07-05T04:59:37.517Z,1.98
2023-07-05T05:02:30.748Z,2.05
2023-07-05T05:05:24.219Z,1.90
2023-07-05T05:08:18.175Z,2.00
2023-07-05T05:11:13.230Z,2.20
2023-07-05T05:14:06.543Z,2.30
2023-07-05T05:17:00.722Z,2.38
2023-07-05T05:19:54.436Z,2.25
2023-07-05T05:22:47.467Z,2.00
2023-07-05T05:25:43.500Z,2.30
2023-07-05T05:28:37.354Z,1.70
2023-07-05T05:31:31.694Z,2.47
2023-07-05T05:34:28.133Z,2.50
2023-07-05T05:37:21.380Z,1.90
2023-07-05T05:40:14.555Z,2.05
2023-07-05T05:43:07.554Z,2.10
2023-07-05T05:46:00.566Z,1.83
2023-07-05T05:48:58.646Z,2.15
2023-07-05T05:51:52.861Z,1.77
2023-07-05T05:54:46.621Z,1.92
2023-07-05T05:57:39.437Z,1.90
2023-07-05T06:00:32.466Z,2.35
2023-07-05T06:03:25.393Z,2.15
2023-07-05T06:06:18.755Z,2.10
2023-07-05T06:09:16.096Z,2.10
2023-07-05T06:12:09.831Z,1.98
2023-07-05T06:15:04.206Z,1.90
2023-07-05T06:17:57.588Z,1.95
2023-07-05T06:20:51.152Z,1.95
2023-07-05T06:23:44.315Z,2.00
2023-07-05T06:26:39.071Z,1.95
2023-07-05T06:29:32.698Z,2.13
2023-07-05T06:32:25.960Z,2.13
2023-07-05T06:35:19.190Z,2.53
2023-07-05T06:38:12.658Z,2.00
2023-07-05T06:41:05.631Z,2.22
2023-07-05T06:44:00.389Z,2.30
2023-07-05T06:46:53.835Z,1.90
2023-07-05T06:49:47.337Z,2.38
2023-07-05T06:52:40.731Z,2.30
2023-07-05T06:55:33.879Z,2.22
2023-07-05T06:58:27.213Z,2.78
2023-07-05T07:01:21.884Z,2.30
2023-07-05T07:04:15.293Z,2.70
2023-07-05T07:07:08.840Z,2.70
2023-07-05T07:10:04.393Z,2.88
2023-07-05T07:12:57.777Z,2.67
2023-07-05T07:15:59.932Z,3.00
2023-07-05T07:18:56.701Z,2.58
2023-07-05T07:21:49.595Z,2.90
2023-07-05T07:24:43.532Z,3.03
2023-07-05T07:27:36.411Z,3.22
2023-07-05T07:30:29.631Z,3.20
2023-07-05T07:33:22.245Z,3.33
2023-07-05T07:36:18.905Z,2.92
2023-07-05T07:39:13.115Z,3.05
2023-07-05T07:42:07.382Z,3.22
2023-07-05T07:45:01.042Z,2.75
2023-07-05T07:47:54.552Z,2.95
2023-07-05T07:50:50.921Z,3.22
2023-07-05T07:53:45.885Z,3.20
2023-07-05T07:56:42.569Z,2.63
2023-07-05T07:59:37.200Z,3.00
2023-07-05T08:02:30.545Z,3.20
2023-07-05T08:05:24.840Z,2.67
2023-07-05T08:08:19.348Z,3.40
2023-07-05T08:11:14.291Z,2.90
2023-07-05T08:14:08.235Z,3.28
2023-07-05T08:17:01.690Z,3.20
2023-07-05T08:19:54.464Z,2.83
2023-07-05T08:22:47.489Z,2.33
2023-07-05T08:25:43.612Z,3.20
2023-07-05T08:28:38.303Z,3.08
2023-07-05T08:31:32.305Z,2.63
2023-07-05T08:34:25.652Z,2.63
2023-07-05T08:37:18.640Z,2.80
2023-07-05T08:40:12.637Z,2.55
2023-07-05T08:43:14.258Z,2.70
2023-07-05T08:46:15.250Z,2.50
2023-07-05T08:49:14.774Z,2.22
2023-07-05T08:52:17.573Z,2.88
2023-07-05T08:55:15.988Z,2.55
2023-07-05T08:58:11.458Z,2.50
2023-07-05T09:01:11.278Z,2.47
2023-07-05T09:04:04.778Z,3.08
2023-07-05T09:07:06.537Z,2.58
2023-07-05T09:10:08.920Z,2.50
2023-07-05T09:13:12.957Z,2.38
2023-07-05T09:16:14.808Z,2.30
2023-07-05T09:19:21.169Z,2.30
2023-07-05T09:22:21.354Z,2.05
2023-07-05T09:25:18.913Z,2.05
2023-07-05T09:28:20.779Z,2.10
2023-07-05T09:31:17.427Z,2.38
2023-07-05T09:34:31.900Z,1.90
2023-07-05T09:37:28.821Z,2.47
2023-07-05T09:40:29.626Z,2.25
2023-07-05T09:43:32.193Z,2.25
2023-07-05T09:46:32.520Z,1.88
2023-07-05T09:49:29.270Z,2.53
2023-07-05T09:52:26.095Z,2.00
2023-07-05T09:55:21.285Z,1.70
2023-07-05T09:58:17.609Z,1.80
2023-07-05T10:01:15.150Z,2.05
2023-07-05T10:04:10.551Z,2.22
2023-07-05T10:07:04.938Z,1.80
2023-07-05T10:10:02.411Z,1.88
2023-07-05T10:13:13.592Z,1.75
2023-07-05T10:16:07.032Z,1.58
2023-07-05T10:19:03.712Z,1.85
2023-07-05T10:22:05.118Z,1.63
2023-07-05T10:25:00.563Z,1.50
2023-07-05T10:27:53.656Z,1.63
2023-07-05T10:30:51.351Z,1.98
2023-07-05T10:33:49.134Z,1.50
2023-07-05T10:36:46.373Z,1.60
2023-07-05T10:39:41.251Z,1.60
2023-07-05T10:42:36.985Z,1.60
2023-07-05T10:45:35.581Z,2.10
2023-07-05T10:48:42.372Z,1.75
2023-07-05T10:51:37.988Z,2.22
2023-07-05T10:54:36.898Z,1.75
2023-07-05T10:57:35.806Z,1.45
2023-07-05T11:00:38.942Z,2.00
2023-07-05T11:03:41.647Z,1.30
2023-07-05T11:06:39.164Z,2.22
2023-07-05T11:09:36.395Z,2.00
2023-07-05T11:12:33.524Z,1.80
2023-07-05T11:15:30.643Z,2.03
2023-07-05T11:18:26.287Z,1.60
2023-07-05T11:21:41.182Z,1.50
2023-07-05T11:24:46.076Z,1.60
2023-07-05T11:27:51.908Z,1.85
2023-07-05T11:30:47.856Z,1.42
2023-07-05T11:33:40.991Z,1.95
2023-07-05T11:36:33.574Z,1.50
2023-07-05T11:39:34.781Z,1.58
2023-07-05T11:42:43.511Z,1.63
2023-07-05T11:45:48.225Z,1.50
2023-07-05T11:48:44.630Z,1.60
2023-07-05T11:51:38.597Z,1.40
2023-07-05T11:54:44.656Z,1.67
2023-07-05T11:57:42.148Z,1.50
2023-07-05T12:00:41.025Z,1.80
2023-07-05T12:03:42.598Z,1.63
2023-07-05T12:06:41.656Z,1.83
2023-07-05T12:09:38.110Z,1.50
2023-07-05T12:12:38.145Z,1.60
2023-07-05T12:15:36.039Z,1.50
2023-07-05T12:18:30.707Z,1.38
2023-07-05T12:21:25.724Z,1.52
2023-07-05T12:24:20.170Z,1.50
2023-07-05T12:27:22.974Z,1.40
2023-07-05T12:30:19.479Z,1.17
2023-07-05T12:33:24.582Z,1.60
2023-07-05T12:36:19.397Z,1.50
2023-07-05T12:39:17.914Z,1.42
2023-07-05T12:42:15.640Z,1.35
2023-07-05T12:45:13.257Z,1.30
2023-07-05T12:48:17.254Z,2.10
2023-07-05T12:51:20.734Z,1.55
2023-07-05T12:54:15.562Z,1.50
2023-07-05T12:57:20.831Z,1.70
2023-07-05T13:00:15.298Z,1.92
2023-07-05T13:03:16.859Z,1.80
2023-07-05T13:06:11.979Z,1.52
2023-07-05T13:09:06.824Z,1.73
2023-07-05T13:12:05.293Z,1.58
2023-07-05T13:15:02.742Z,1.98
2023-07-05T13:17:55.983Z,1.60
2023-07-05T13:20:49.339Z,1.70
2023-07-05T13:23:47.856Z,1.67
2023-07-05T13:26:41.771Z,1.80
2023-07-05T13:29:37.634Z,1.60
2023-07-05T13:32:37.730Z,1.63
2023-07-05T13:35:33.241Z,1.63
2023-07-05T13:38:29.156Z,1.75
2023-07-05T13:41:28.614Z,1.80
2023-07-05T13:44:23.295Z,1.77
2023-07-05T13:47:18.798Z,2.00
2023-07-05T13:50:14.063Z,1.58
2023-07-05T13:53:15.039Z,2.28
2023-07-05T13:56:07.779Z,1.48
2023-07-05T13:59:01.064Z,1.80
2023-07-05T14:01:54.373Z,1.52
2023-07-05T14:04:50.308Z,2.00
2023-07-05T14:07:43.988Z,2.28
2023-07-05T14:10:37.747Z,1.40
2023-07-05T14:13:31.086Z,1.73
2023-07-05T14:16:26.228Z,1.70
2023-07-05T14:19:20.298Z,1.77
2023-07-05T14:22:19.863Z,1.88
2023-07-05T14:25:17.211Z,1.60
2023-07-05T14:28:10.782Z,1.75
2023-07-05T14:31:11.232Z,1.75
2023-07-05T14:34:05.132Z,1.77
2023-07-05T14:36:58.115Z,2.00
2023-07-05T14:39:53.628Z,1.98
2023-07-05T14:42:47.438Z,1.88
2023-07-05T14:45:41.623Z,1.98
2023-07-05T14:48:35.377Z,2.00
2023-07-05T14:51:30.196Z,1.95
2023-07-05T14:54:24.062Z,1.88
2023-07-05T14:57:18.414Z,2.33
2023-07-05T15:00:15.857Z,2.03
2023-07-05T15:03:11.455Z,2.10
2023-07-05T15:06:06.127Z,2.20
2023-07-05T15:08:59.007Z,1.50
2023-07-05T15:11:52.289Z,1.83
2023-07-05T15:14:47.986Z,1.92
2023-07-05T15:17:41.131Z,1.95
2023-07-05T15:20:35.802Z,1.95
2023-07-05T15:23:29.081Z,1.80
2023-07-05T15:26:23.979Z,1.83
2023-07-05T15:29:17.722Z,1.98
2023-07-05T15:32:12.613Z,1.95
2023-07-05T15:35:08.424Z,2.35
2023-07-05T15:38:01.800Z,2.10
2023-07-05T15:40:55.417Z,2.25
2023-07-05T15:43:49.051Z,2.00
2023-07-05T15:46:41.857Z,2.28
2023-07-05T15:49:36.477Z,2.38
2023-07-05T15:52:30.164Z,2.30
2023-07-05T15:55:24.189Z,2.17
2023-07-05T15:58:23.482Z,1.92
2023-07-05T16:01:22.533Z,2.20
2023-07-05T16:04:16.033Z,2.15
2023-07-05T16:07:10.549Z,1.77
2023-07-05T16:10:04.670Z,2.22
2023-07-05T16:13:00.386Z,2.10
2023-07-05T16:15:58.332Z,2.10
2023-07-05T16:18:52.390Z,2.03
2023-07-05T16:21:46.468Z,2.00
2023-07-05T16:24:41.138Z,2.00
2023-07-05T16:27:34.386Z,1.80
2023-07-05T16:30:28.517Z,2.00
2023-07-05T16:33:21.989Z,2.45
2023-07-05T16:36:16.120Z,1.95
2023-07-05T16:39:09.782Z,2.33
2023-07-05T16:42:05.538Z,2.38
2023-07-05T16:45:00.457Z,1.98
2023-07-05T16:47:54.060Z,2.05
2023-07-05T16:50:47.213Z,2.30
2023-07-05T16:53:42.471Z,2.40
2023-07-05T16:56:36.015Z,3.08
2023-07-05T16:59:30.349Z,2.50
2023-07-05T17:02:24.097Z,2.80
2023-07-05T17:05:17.369Z,2.65
2023-07-05T17:08:13.460Z,2.95
2023-07-05T17:11:09.607Z,2.70
2023-07-05T17:14:05.813Z,2.28
2023-07-05T17:17:02.401Z,2.50
2023-07-05T17:19:56.168Z,2.08
2023-07-05T17:22:49.122Z,2.63
2023-07-05T17:25:42.670Z,2.17
2023-07-05T17:28:38.474Z,2.17
2023-07-05T17:31:32.277Z,2.47
2023-07-05T17:34:30.073Z,2.75
2023-07-05T17:37:22.872Z,2.63
2023-07-05T17:40:16.582Z,2.03
2023-07-05T17:43:10.212Z,2.25
2023-07-05T17:46:22.625Z,2.20
2023-07-05T17:49:16.550Z,2.22
2023-07-05T17:52:11.624Z,2.30
2023-07-05T17:55:06.146Z,2.47
2023-07-05T17:58:02.110Z,2.40
2023-07-05T18:00:55.229Z,2.60
2023-07-05T18:03:49.918Z,2.05
2023-07-05T18:06:45.913Z,2.58
2023-07-05T18:09:40.874Z,2.63
2023-07-05T18:12:34.314Z,2.55
2023-07-05T18:15:28.947Z,2.60
2023-07-05T18:18:22.020Z,2.50
2023-07-05T18:21:16.695Z,2.80
2023-07-05T18:24:10.247Z,2.10
2023-07-05T18:27:04.963Z,2.47
2023-07-05T18:29:58.018Z,2.28
2023-07-05T18:32:51.555Z,2.25
2023-07-05T18:35:49.214Z,2.40
2023-07-05T18:38:42.046Z,2.50
2023-07-05T18:41:36.493Z,2.08
2023-07-05T18:44:31.466Z,2.70
2023-07-05T18:47:25.039Z,2.40
2023-07-05T18:50:18.420Z,2.60
2023-07-05T18:53:12.642Z,2.50
2023-07-05T18:56:08.115Z,2.40
2023-07-05T18:59:00.973Z,2.35
2023-07-05T19:01:55.385Z,2.25
2023-07-05T19:04:48.873Z,2.00
2023-07-05T19:07:42.373Z,2.70
2023-07-05T19:10:35.857Z,2.40
2023-07-05T19:13:29.812Z,2.10
2023-07-05T19:16:26.194Z,2.28
2023-07-05T19:19:20.623Z,2.25
2023-07-05T19:22:14.280Z,2.58
2023-07-05T19:25:08.963Z,2.10
2023-07-05T19:28:02.487Z,2.40
2023-07-05T19:31:05.892Z,2.08
2023-07-05T19:33:59.434Z,1.98
2023-07-05T19:36:54.518Z,2.17
2023-07-05T19:39:48.566Z,2.08
2023-07-05T19:42:42.588Z,2.00
2023-07-05T19:45:36.329Z,1.95
2023-07-05T19:48:32.522Z,1.70
2023-07-05T19:51:26.113Z,1.98
2023-07-05T19:54:21.318Z,1.70
2023-07-05T19:57:14.439Z,1.70
2023-07-05T20:00:09.577Z,2.25
2023-07-05T20:03:04.467Z,1.83
2023-07-05T20:05:58.645Z,1.60
2023-07-05T20:08:53.432Z,1.50
2023-07-05T20:11:51.424Z,1.92
2023-07-05T20:14:44.716Z,1.90
2023-07-05T20:17:38.809Z,1.60
2023-07-05T20:20:32.737Z,2.03
2023-07-05T20:23:25.992Z,1.77
2023-07-05T20:26:19.834Z,1.80
2023-07-05T20:29:14.779Z,1.52
2023-07-05T20:32:09.138Z,1.90
2023-07-05T20:35:02.311Z,2.05
2023-07-05T20:38:00.388Z,1.70
2023-07-05T20:40:56.449Z,1.90
2023-07-05T20:43:49.621Z,1.58
2023-07-05T20:46:45.218Z,2.33
2023-07-05T20:49:39.811Z,1.80
2023-07-05T20:52:33.519Z,1.88
2023-07-05T20:55:26.769Z,2.35
2023-07-05T20:58:20.453Z,1.85
2023-07-05T21:01:16.921Z,1.80
2023-07-05T21:04:11.619Z,2.40
2023-07-05T21:07:05.693Z,1.73
2023-07-05T21:09:59.068Z,1.98
2023-07-05T21:12:51.999Z,2.08
2023-07-05T21:15:47.485Z,1.70
2023-07-05T21:18:40.661Z,1.70
2023-07-05T21:21:39.869Z,2.33
2023-07-05T21:24:33.705Z,2.15
2023-07-05T21:27:27.217Z,1.95
2023-07-05T21:30:20.200Z,2.28
2023-07-05T21:33:13.221Z,1.75
2023-07-05T21:36:08.618Z,1.95
2023-07-05T21:39:04.297Z,2.22
2023-07-05T21:41:57.366Z,1.83
2023-07-05T21:44:50.429Z,1.95
2023-07-05T21:47:43.581Z,2.30
2023-07-05T21:50:37.164Z,1.70
2023-07-05T21:53:30.424Z,2.00
2023-07-05T21:56:24.695Z,2.17
2023-07-05T21:59:18.539Z,1.65
2023-07-05T22:02:11.273Z,1.90
2023-07-05T22:05:05.516Z,1.60
2023-07-05T22:07:58.401Z,1.88
2023-07-05T22:10:54.349Z,1.75
2023-07-05T22:13:49.680Z,1.85
2023-07-05T22:16:43.762Z,2.15
2023-07-05T22:19:37.611Z,2.28
2023-07-05T22:22:31.797Z,1.92
2023-07-05T22:25:25.975Z,2.38
2023-07-05T22:28:19.404Z,1.70
2023-07-05T22:31:14.252Z,1.85
2023-07-05T22:34:07.482Z,2.08
2023-07-05T22:37:00.562Z,1.90
2023-07-05T22:39:53.389Z,2.00
2023-07-05T22:42:46.483Z,1.60
2023-07-05T22:45:40.247Z,2.53
2023-07-05T22:48:37.275Z,1.73
2023-07-05T22:51:30.428Z,1.80
2023-07-05T22:54:26.353Z,2.10
2023-07-05T22:57:19.664Z,1.80
2023-07-05T23:00:18.373Z,2.17
2023-07-05T23:03:11.967Z,1.80
2023-07-05T23:06:08.777Z,1.70
2023-07-05T23:09:02.303Z,2.15
2023-07-05T23:11:55.445Z,1.70
2023-07-05T23:14:48.410Z,1.92
2023-07-05T23:17:41.652Z,2.17
2023-07-05T23:20:35.870Z,1.95
2023-07-05T23:23:31.396Z,1.73
2023-07-05T23:26:25.694Z,1.85
2023-07-05T23:29:19.548Z,1.92
2023-07-05T23:32:16.298Z,1.63
2023-07-05T23:35:13.211Z,1.60
2023-07-05T23:38:06.442Z,1.75
2023-07-05T23:41:01.540Z,1.60
2023-07-05T23:43:55.413Z,1.70
2023-07-05T23:46:48.265Z,1.90
2023-07-05T23:49:41.509Z,1.70
2023-07-05T23:52:34.405Z,1.92
2023-07-05T23:55:27.966Z,2.50
2023-07-05T23:58:23.662Z,2.03
